createdAt,value
2022-10-26T00:01:21.993Z,11.90
2022-10-26T00:03:49.984Z,11.98
2022-10-26T00:06:19.799Z,12.07
2022-10-26T00:08:49.837Z,12.13
2022-10-26T00:11:20.005Z,12.19
2022-10-26T00:13:48.591Z,12.13
2022-10-26T00:16:18.807Z,11.95
2022-10-26T00:18:46.657Z,11.77
2022-10-26T00:21:15.058Z,11.78
2022-10-26T00:23:42.839Z,11.83
2022-10-26T00:26:11.199Z,11.89
2022-10-26T00:28:40.673Z,11.97
2022-10-26T00:31:13.264Z,11.99
2022-10-26T00:33:41.053Z,12.01
2022-10-26T00:36:10.390Z,12.02
2022-10-26T00:38:38.256Z,11.98
2022-10-26T00:41:06.793Z,11.96
2022-10-26T00:43:36.772Z,11.96
2022-10-26T00:46:09.344Z,11.86
2022-10-26T00:48:40.331Z,11.81
2022-10-26T00:51:11.483Z,11.77
2022-10-26T00:53:39.818Z,11.70
2022-10-26T00:56:08.173Z,11.66
2022-10-26T00:58:37.180Z,11.55
2022-10-26T01:01:06.432Z,11.44
2022-10-26T01:03:36.785Z,11.28
2022-10-26T01:06:06.500Z,11.24
2022-10-26T01:08:35.165Z,11.27
2022-10-26T01:11:04.239Z,11.28
2022-10-26T01:13:35.786Z,11.27
2022-10-26T01:16:20.478Z,11.31
2022-10-26T01:18:58.955Z,11.38
2022-10-26T01:21:49.736Z,11.45
2022-10-26T01:24:47.307Z,11.47
2022-10-26T01:27:31.551Z,11.51
2022-10-26T01:30:29.905Z,11.50
2022-10-26T01:33:24.968Z,11.52
2022-10-26T01:36:04.209Z,11.53
2022-10-26T01:38:37.770Z,11.47
2022-10-26T01:41:12.985Z,11.42
2022-10-26T01:43:47.341Z,11.34
2022-10-26T01:46:20.975Z,11.28
2022-10-26T01:48:53.017Z,11.25
2022-10-26T01:51:22.169Z,11.29
2022-10-26T01:53:50.317Z,11.31
2022-10-26T01:56:22.193Z,11.32
2022-10-26T01:59:04.429Z,11.35
2022-10-26T02:01:51.465Z,11.35
2022-10-26T02:04:35.767Z,11.29
2022-10-26T02:07:10.060Z,11.26
2022-10-26T02:09:47.201Z,11.30
2022-10-26T02:12:24.129Z,11.28
2022-10-26T02:14:58.483Z,11.27
2022-10-26T02:17:30.665Z,11.20
2022-10-26T02:20:04.201Z,11.22
2022-10-26T02:22:36.031Z,11.15
2022-10-26T02:25:13.196Z,11.04
2022-10-26T02:27:45.652Z,11.01
2022-10-26T02:30:14.476Z,11.02
2022-10-26T02:32:48.032Z,11.07
2022-10-26T02:35:18.498Z,11.06
2022-10-26T02:37:49.157Z,11.00
2022-10-26T02:40:21.725Z,11.00
2022-10-26T02:42:53.705Z,11.04
2022-10-26T02:45:27.040Z,10.95
2022-10-26T02:47:57.160Z,11.02
2022-10-26T02:50:32.760Z,10.95
2022-10-26T02:53:08.772Z,10.76
2022-10-26T02:55:41.230Z,10.75
2022-10-26T02:58:15.965Z,10.54
2022-10-26T03:00:44.427Z,10.51
2022-10-26T03:03:14.773Z,10.53
2022-10-26T03:05:43.801Z,10.61
2022-10-26T03:08:11.924Z,10.66
2022-10-26T03:10:42.538Z,10.70
2022-10-26T03:13:11.456Z,10.76
2022-10-26T03:15:39.483Z,10.72
2022-10-26T03:18:07.997Z,10.70
2022-10-26T03:20:37.320Z,10.72
2022-10-26T03:23:05.114Z,10.70
2022-10-26T03:25:32.879Z,10.69
2022-10-26T03:28:02.381Z,10.65
2022-10-26T03:30:31.535Z,10.62
2022-10-26T03:32:59.415Z,10.63
2022-10-26T03:35:27.229Z,10.65
2022-10-26T03:37:56.479Z,10.62
2022-10-26T03:40:24.325Z,10.62
2022-10-26T03:42:52.469Z,10.67
2022-10-26T03:45:20.530Z,10.60
2022-10-26T03:47:49.779Z,10.57
2022-10-26T03:50:19.695Z,10.65
2022-10-26T03:52:48.811Z,10.63
2022-10-26T03:55:19.341Z,10.63
2022-10-26T03:57:47.156Z,10.63
2022-10-26T04:00:17.249Z,10.59
2022-10-26T04:02:46.925Z,10.58
2022-10-26T04:05:16.575Z,10.60
2022-10-26T04:07:44.620Z,10.52
2022-10-26T04:10:12.543Z,10.48
2022-10-26T04:12:41.735Z,10.54
2022-10-26T04:15:10.245Z,10.65
2022-10-26T04:17:38.048Z,10.70
2022-10-26T04:20:06.698Z,10.70
2022-10-26T04:22:35.128Z,10.67
2022-10-26T04:25:02.977Z,10.59
2022-10-26T04:27:30.781Z,10.66
2022-10-26T04:30:00.160Z,10.68
2022-10-26T04:32:28.066Z,10.68
2022-10-26T04:34:55.843Z,10.65
2022-10-26T04:37:23.639Z,10.60
2022-10-26T04:39:51.398Z,10.53
2022-10-26T04:42:19.161Z,10.36
2022-10-26T04:44:46.912Z,10.20
2022-10-26T04:47:16.025Z,10.23
2022-10-26T04:49:43.790Z,10.33
2022-10-26T04:52:11.557Z,10.35
2022-10-26T04:54:39.401Z,10.48
2022-10-26T04:57:07.310Z,10.54
2022-10-26T04:59:35.114Z,10.54
2022-10-26T05:02:03.079Z,10.57
2022-10-26T05:04:32.379Z,10.62
2022-10-26T05:07:00.153Z,10.63
2022-10-26T05:09:27.940Z,10.65
2022-10-26T05:11:55.691Z,10.65
2022-10-26T05:14:23.588Z,10.59
2022-10-26T05:16:51.819Z,10.51
2022-10-26T05:19:19.631Z,10.46
2022-10-26T05:21:48.752Z,10.48
2022-10-26T05:24:16.548Z,10.51
2022-10-26T05:26:44.520Z,10.49
2022-10-26T05:29:12.461Z,10.57
2022-10-26T05:31:40.292Z,10.56
2022-10-26T05:34:08.079Z,10.53
2022-10-26T05:36:35.819Z,10.54
2022-10-26T05:39:05.205Z,10.58
2022-10-26T05:41:32.952Z,10.59
2022-10-26T05:44:00.957Z,10.58
2022-10-26T05:46:28.738Z,10.55
2022-10-26T05:48:56.508Z,10.47
2022-10-26T05:51:24.260Z,10.50
2022-10-26T05:53:54.685Z,10.46
2022-10-26T05:56:36.614Z,10.58
2022-10-26T05:59:05.068Z,10.48
2022-10-26T06:01:48.842Z,10.67
2022-10-26T06:04:28.214Z,10.60
2022-10-26T06:06:58.520Z,10.59
2022-10-26T06:09:27.157Z,10.56
2022-10-26T06:11:57.097Z,10.63
2022-10-26T06:14:25.399Z,10.63
2022-10-26T06:17:07.822Z,10.67
2022-10-26T06:19:48.345Z,10.74
2022-10-26T06:22:29.401Z,10.87
2022-10-26T06:25:05.289Z,10.94
2022-10-26T06:27:44.826Z,10.94
2022-10-26T06:30:13.166Z,10.96
2022-10-26T06:32:42.501Z,10.77
2022-10-26T06:35:25.196Z,10.79
2022-10-26T06:37:55.360Z,10.79
2022-10-26T06:40:24.869Z,10.89
2022-10-26T06:42:54.661Z,10.97
2022-10-26T06:45:23.289Z,11.01
2022-10-26T06:47:58.375Z,10.97
2022-10-26T06:50:37.645Z,11.07
2022-10-26T06:53:22.209Z,11.10
2022-10-26T06:55:51.772Z,11.15
2022-10-26T06:58:24.204Z,11.20
2022-10-26T07:00:54.883Z,11.25
2022-10-26T07:03:22.720Z,11.27
2022-10-26T07:05:50.806Z,11.30
2022-10-26T07:08:18.841Z,11.31
2022-10-26T07:10:48.014Z,11.30
2022-10-26T07:13:15.941Z,11.35
2022-10-26T07:15:45.117Z,11.39
2022-10-26T07:18:12.907Z,11.47
2022-10-26T07:20:42.909Z,11.51
2022-10-26T07:23:11.905Z,11.54
2022-10-26T07:25:40.648Z,11.57
2022-10-26T07:28:10.153Z,11.58
2022-10-26T07:30:39.249Z,11.61
2022-10-26T07:33:10.572Z,11.64
2022-10-26T07:35:38.673Z,11.66
2022-10-26T07:38:07.168Z,11.69
2022-10-26T07:40:35.700Z,11.66
2022-10-26T07:43:03.468Z,11.85
2022-10-26T07:45:31.636Z,11.93
2022-10-26T07:47:59.416Z,11.99
2022-10-26T07:50:28.559Z,12.01
2022-10-26T07:52:56.332Z,12.04
2022-10-26T07:55:24.213Z,12.06
2022-10-26T07:57:54.712Z,12.07
2022-10-26T08:00:23.383Z,12.03
2022-10-26T08:02:51.180Z,12.13
2022-10-26T08:05:19.347Z,12.19
2022-10-26T08:07:49.074Z,12.29
2022-10-26T08:10:17.546Z,12.33
2022-10-26T08:12:45.448Z,12.32
2022-10-26T08:15:13.268Z,12.36
2022-10-26T08:17:41.033Z,12.42
2022-10-26T08:20:09.977Z,12.49
2022-10-26T08:22:37.737Z,12.58
2022-10-26T08:25:07.464Z,12.65
2022-10-26T08:27:35.258Z,12.71
2022-10-26T08:30:03.041Z,12.77
2022-10-26T08:32:30.876Z,12.83
2022-10-26T08:34:58.632Z,12.93
2022-10-26T08:37:28.241Z,12.98
2022-10-26T08:39:57.489Z,12.97
2022-10-26T08:42:34.896Z,13.07
2022-10-26T08:45:08.605Z,13.14
2022-10-26T08:47:43.090Z,13.21
2022-10-26T08:50:15.415Z,13.29
2022-10-26T08:52:50.949Z,13.33
2022-10-26T08:55:23.468Z,13.32
2022-10-26T08:57:54.521Z,13.39
2022-10-26T09:00:24.565Z,13.49
2022-10-26T09:02:53.469Z,13.60
2022-10-26T09:05:28.740Z,13.60
2022-10-26T09:08:06.133Z,13.67
2022-10-26T09:10:40.932Z,13.75
2022-10-26T09:13:24.745Z,13.83
2022-10-26T09:16:03.457Z,13.88
2022-10-26T09:18:42.502Z,13.94
2022-10-26T09:21:17.209Z,13.97
2022-10-26T09:23:57.039Z,14.06
2022-10-26T09:26:33.492Z,14.08
2022-10-26T09:29:06.608Z,14.10
2022-10-26T09:31:43.971Z,14.11
2022-10-26T09:34:21.475Z,14.11
2022-10-26T09:36:54.189Z,14.13
2022-10-26T09:39:29.686Z,14.17
2022-10-26T09:42:01.273Z,14.20
2022-10-26T09:44:35.678Z,14.21
2022-10-26T09:47:07.655Z,14.24
2022-10-26T09:49:42.712Z,14.26
2022-10-26T09:54:39.465Z,14.42
2022-10-26T09:57:08.829Z,14.54
2022-10-26T09:59:41.139Z,14.63
2022-10-26T10:02:35.540Z,14.66
2022-10-26T10:05:32.574Z,14.82
2022-10-26T10:08:19.075Z,14.96
2022-10-26T10:10:56.154Z,15.04
2022-10-26T10:13:26.765Z,15.13
2022-10-26T10:15:58.688Z,15.21
2022-10-26T10:18:26.716Z,15.27
2022-10-26T10:20:57.565Z,15.25
2022-10-26T10:23:28.996Z,15.41
2022-10-26T10:26:06.043Z,15.45
2022-10-26T10:28:35.134Z,15.57
2022-10-26T10:31:06.368Z,15.63
2022-10-26T10:33:39.611Z,15.61
2022-10-26T10:36:11.463Z,15.57
2022-10-26T10:38:41.777Z,15.64
2022-10-26T10:41:18.172Z,15.63
2022-10-26T10:43:49.861Z,15.72
2022-10-26T10:46:25.695Z,15.64
2022-10-26T10:49:01.775Z,15.73
2022-10-26T10:51:31.613Z,15.73
2022-10-26T10:53:59.440Z,15.74
2022-10-26T10:56:35.400Z,15.76
2022-10-26T10:59:22.386Z,15.79
2022-10-26T11:01:59.046Z,15.83
2022-10-26T11:04:45.828Z,15.86
2022-10-26T11:07:16.273Z,15.98
2022-10-26T11:09:47.836Z,16.08
2022-10-26T11:12:19.960Z,16.37
2022-10-26T11:14:53.711Z,16.52
2022-10-26T11:17:26.882Z,16.58
2022-10-26T11:19:58.653Z,16.66
2022-10-26T11:22:30.104Z,16.72
2022-10-26T11:25:01.569Z,16.81
2022-10-26T11:27:35.184Z,16.88
2022-10-26T11:30:06.952Z,16.87
2022-10-26T11:32:44.321Z,16.87
2022-10-26T11:35:17.901Z,16.88
2022-10-26T11:37:50.884Z,16.91
2022-10-26T11:40:29.318Z,16.89
2022-10-26T11:43:06.422Z,16.88
2022-10-26T11:45:37.101Z,16.86
2022-10-26T11:48:15.862Z,16.85
2022-10-26T11:50:47.580Z,16.83
2022-10-26T11:53:18.726Z,16.80
2022-10-26T11:55:52.246Z,16.75
2022-10-26T11:58:23.945Z,16.69
2022-10-26T12:00:57.690Z,16.69
2022-10-26T12:03:29.470Z,16.71
2022-10-26T12:05:57.315Z,16.82
2022-10-26T12:08:28.332Z,16.89
2022-10-26T12:11:03.435Z,16.98
2022-10-26T12:13:37.915Z,17.04
2022-10-26T12:16:12.660Z,17.12
2022-10-26T12:18:55.584Z,17.20
2022-10-26T12:21:27.191Z,17.28
2022-10-26T12:23:56.589Z,17.37
2022-10-26T12:26:57.353Z,17.42
2022-10-26T12:29:47.253Z,17.37
2022-10-26T12:32:51.638Z,17.28
2022-10-26T12:35:54.813Z,17.15
2022-10-26T12:39:00.092Z,17.14
2022-10-26T12:41:29.086Z,17.13
2022-10-26T12:43:59.178Z,17.16
2022-10-26T12:46:42.495Z,17.16
2022-10-26T12:49:58.195Z,17.18
2022-10-26T12:52:40.788Z,17.22
2022-10-26T12:55:49.936Z,17.24
2022-10-26T12:58:54.166Z,17.21
2022-10-26T13:04:51.243Z,17.13
2022-10-26T13:07:21.892Z,17.13
2022-10-26T13:09:58.887Z,17.11
2022-10-26T13:12:28.351Z,17.13
2022-10-26T13:15:01.472Z,17.20
2022-10-26T13:17:32.422Z,17.28
2022-10-26T13:20:02.128Z,17.36
2022-10-26T13:22:31.004Z,17.38
2022-10-26T13:25:03.120Z,17.39
2022-10-26T13:27:44.895Z,17.39
2022-10-26T13:30:43.881Z,17.39
2022-10-26T13:33:37.782Z,17.37
2022-10-26T13:36:16.673Z,17.37
2022-10-26T13:38:47.229Z,17.30
2022-10-26T13:41:23.863Z,17.26
2022-10-26T13:43:53.182Z,17.17
2022-10-26T13:46:28.424Z,17.09
2022-10-26T13:49:04.810Z,17.02
2022-10-26T13:51:41.886Z,16.96
2022-10-26T13:54:21.666Z,16.91
2022-10-26T13:57:03.219Z,16.86
2022-10-26T13:59:34.301Z,16.82
2022-10-26T14:02:15.743Z,16.78
2022-10-26T14:04:47.162Z,16.72
2022-10-26T14:07:22.751Z,16.67
2022-10-26T14:09:52.655Z,16.58
2022-10-26T14:12:22.436Z,16.61
2022-10-26T14:14:51.434Z,16.58
2022-10-26T14:17:25.534Z,16.62
2022-10-26T14:19:54.200Z,16.57
2022-10-26T14:22:25.270Z,16.52
2022-10-26T14:27:27.560Z,16.49
2022-10-26T14:32:44.285Z,16.42
2022-10-26T14:35:13.613Z,16.38
2022-10-26T14:37:46.552Z,16.33
2022-10-26T14:40:18.218Z,16.31
2022-10-26T14:42:51.289Z,16.26
2022-10-26T14:45:43.334Z,16.22
2022-10-26T14:48:21.892Z,16.20
2022-10-26T14:51:00.397Z,16.15
2022-10-26T14:53:35.423Z,16.16
2022-10-26T14:56:05.095Z,16.12
2022-10-26T14:58:35.252Z,16.09
2022-10-26T15:01:16.185Z,16.02
2022-10-26T15:03:45.409Z,16.01
2022-10-26T15:06:34.224Z,15.97
2022-10-26T15:09:04.614Z,15.89
2022-10-26T15:11:34.488Z,15.90
2022-10-26T15:14:04.176Z,15.88
2022-10-26T15:16:35.987Z,15.58
2022-10-26T15:19:10.302Z,15.74
2022-10-26T15:21:41.112Z,15.65
2022-10-26T15:24:27.490Z,15.54
2022-10-26T15:26:55.710Z,15.45
2022-10-26T15:29:39.302Z,15.37
2022-10-26T15:32:20.489Z,15.32
2022-10-26T15:34:50.739Z,15.25
2022-10-26T15:37:19.816Z,15.15
2022-10-26T15:39:47.940Z,15.17
2022-10-26T15:42:15.850Z,15.12
2022-10-26T15:44:44.968Z,15.07
2022-10-26T15:47:19.399Z,15.03
2022-10-26T15:49:47.252Z,14.98
2022-10-26T15:52:15.145Z,14.93
2022-10-26T15:54:42.967Z,14.88
2022-10-26T15:57:16.708Z,14.84
2022-10-26T15:59:48.380Z,14.79
2022-10-26T16:02:17.405Z,14.77
2022-10-26T16:04:45.353Z,14.75
2022-10-26T16:07:14.363Z,14.70
2022-10-26T16:09:43.077Z,14.67
2022-10-26T16:12:11.892Z,14.63
2022-10-26T16:15:00.593Z,14.60
2022-10-26T16:17:29.112Z,14.56
2022-10-26T16:19:56.876Z,14.54
2022-10-26T16:22:25.037Z,14.51
2022-10-26T16:24:52.813Z,14.46
2022-10-26T16:27:20.598Z,14.45
2022-10-26T16:29:48.494Z,14.40
2022-10-26T16:32:16.298Z,14.33
2022-10-26T16:34:45.510Z,14.30
2022-10-26T16:37:13.251Z,14.28
2022-10-26T16:39:41.010Z,14.25
2022-10-26T16:42:08.780Z,14.16
2022-10-26T16:44:37.908Z,14.18
2022-10-26T16:47:05.839Z,14.18
2022-10-26T16:49:34.166Z,14.20
2022-10-26T16:52:04.292Z,14.25
2022-10-26T16:54:32.069Z,14.26
2022-10-26T16:56:59.841Z,14.25
2022-10-26T16:59:27.701Z,14.18
2022-10-26T17:01:55.606Z,14.18
2022-10-26T17:04:23.566Z,14.15
2022-10-26T17:06:51.730Z,14.13
2022-10-26T17:09:20.945Z,14.12
2022-10-26T17:11:48.888Z,14.10
2022-10-26T17:14:17.224Z,14.08
2022-10-26T17:16:44.967Z,14.07
2022-10-26T17:19:12.975Z,14.05
2022-10-26T17:21:40.729Z,14.04
2022-10-26T17:24:08.713Z,14.00
2022-10-26T17:26:37.876Z,14.01
2022-10-26T17:29:05.759Z,14.00
2022-10-26T17:31:34.235Z,14.01
2022-10-26T17:34:02.324Z,14.01
2022-10-26T17:36:31.639Z,14.00
2022-10-26T17:39:00.765Z,14.02
2022-10-26T17:41:28.732Z,14.03
2022-10-26T17:43:58.045Z,14.03
2022-10-26T17:46:27.922Z,14.00
2022-10-26T17:48:56.395Z,13.98
2022-10-26T17:51:24.785Z,14.01
2022-10-26T17:53:52.756Z,13.97
2022-10-26T17:56:22.195Z,13.98
2022-10-26T17:58:53.688Z,13.97
2022-10-26T18:01:23.495Z,13.99
2022-10-26T18:03:51.458Z,13.97
2022-10-26T18:06:19.357Z,14.00
2022-10-26T18:08:47.285Z,13.98
2022-10-26T18:11:18.575Z,14.01
2022-10-26T18:13:48.537Z,14.02
2022-10-26T18:16:19.053Z,13.99
2022-10-26T18:18:50.072Z,13.91
2022-10-26T18:21:19.529Z,13.95
2022-10-26T18:23:47.956Z,13.96
2022-10-26T18:26:18.612Z,13.92
2022-10-26T18:28:47.070Z,13.92
2022-10-26T18:31:16.805Z,13.88
2022-10-26T18:33:44.936Z,13.91
2022-10-26T18:36:15.627Z,13.88
2022-10-26T18:38:44.438Z,13.75
2022-10-26T18:41:14.161Z,13.81
2022-10-26T18:43:42.699Z,13.77
2022-10-26T18:46:14.155Z,13.74
2022-10-26T18:48:44.365Z,13.76
2022-10-26T18:51:15.204Z,13.81
2022-10-26T18:53:44.636Z,13.86
2022-10-26T18:56:14.101Z,13.84
2022-10-26T18:58:43.760Z,13.76
2022-10-26T19:01:13.421Z,13.80
2022-10-26T19:03:42.359Z,13.79
2022-10-26T19:06:12.339Z,13.76
2022-10-26T19:08:42.510Z,13.66
2022-10-26T19:11:12.566Z,13.43
2022-10-26T19:13:40.515Z,13.33
2022-10-26T19:16:21.718Z,13.28
2022-10-26T19:18:58.993Z,13.18
2022-10-26T19:21:28.169Z,13.08
2022-10-26T19:23:59.404Z,13.15
2022-10-26T19:26:33.381Z,13.19
2022-10-26T19:29:05.881Z,13.25
2022-10-26T19:31:35.620Z,13.32
2022-10-26T19:34:04.400Z,13.35
2022-10-26T19:36:32.208Z,13.43
2022-10-26T19:39:02.014Z,13.45
2022-10-26T19:41:31.298Z,13.57
2022-10-26T19:46:32.781Z,13.68
2022-10-26T19:49:02.482Z,13.69
2022-10-26T19:51:32.131Z,13.66
2022-10-26T19:54:03.762Z,13.65
2022-10-26T19:56:32.431Z,13.64
2022-10-26T19:59:00.977Z,13.63
2022-10-26T20:01:29.145Z,13.57
2022-10-26T20:03:57.208Z,13.50
2022-10-26T20:06:25.054Z,13.50
2022-10-26T20:08:52.836Z,13.54
2022-10-26T20:11:21.976Z,13.57
2022-10-26T20:13:49.788Z,13.60
2022-10-26T20:16:18.615Z,13.62
2022-10-26T20:18:48.976Z,13.63
2022-10-26T20:21:18.324Z,13.66
2022-10-26T20:23:46.412Z,13.68
2022-10-26T20:26:18.449Z,13.65
2022-10-26T20:28:51.285Z,13.66
2022-10-26T20:31:19.700Z,13.61
2022-10-26T20:33:51.436Z,13.57
2022-10-26T20:36:19.269Z,13.60
2022-10-26T20:38:47.594Z,13.61
2022-10-26T20:41:15.912Z,13.62
2022-10-26T20:43:44.341Z,13.63
2022-10-26T20:46:21.800Z,13.62
2022-10-26T20:48:50.365Z,13.64
2022-10-26T20:51:23.808Z,13.67
2022-10-26T20:54:04.470Z,13.68
2022-10-26T20:56:34.840Z,13.61
2022-10-26T20:59:04.983Z,13.55
2022-10-26T21:01:38.135Z,13.62
2022-10-26T21:04:06.235Z,13.57
2022-10-26T21:06:40.058Z,13.56
2022-10-26T21:09:08.994Z,13.56
2022-10-26T21:11:36.804Z,13.51
2022-10-26T21:14:06.363Z,13.48
2022-10-26T21:16:35.678Z,13.47
2022-10-26T21:19:04.921Z,13.42
2022-10-26T21:21:33.145Z,13.40
2022-10-26T21:24:02.371Z,13.42
2022-10-26T21:26:30.481Z,13.43
2022-10-26T21:28:58.288Z,13.43
2022-10-26T21:31:26.132Z,13.39
2022-10-26T21:33:55.321Z,13.43
2022-10-26T21:36:23.140Z,13.43
2022-10-26T21:38:50.887Z,13.44
2022-10-26T21:41:20.649Z,13.38
2022-10-26T21:43:55.959Z,13.37
2022-10-26T21:46:31.449Z,13.41
2022-10-26T21:49:00.524Z,13.41
2022-10-26T21:51:28.320Z,13.42
2022-10-26T21:53:56.079Z,13.42
2022-10-26T21:56:23.939Z,13.42
2022-10-26T21:58:51.687Z,13.43
2022-10-26T22:01:21.226Z,13.40
2022-10-26T22:03:49.717Z,13.40
2022-10-26T22:06:23.485Z,13.39
2022-10-26T22:08:51.305Z,13.36
2022-10-26T22:11:21.105Z,13.35
2022-10-26T22:13:50.385Z,13.34
2022-10-26T22:16:20.880Z,13.16
2022-10-26T22:18:50.103Z,13.12
2022-10-26T22:21:19.476Z,13.08
2022-10-26T22:23:48.888Z,13.06
2022-10-26T22:26:19.503Z,12.99
2022-10-26T22:28:48.612Z,12.83
2022-10-26T22:31:18.955Z,12.71
2022-10-26T22:33:46.846Z,12.72
2022-10-26T22:36:16.898Z,12.79
2022-10-26T22:38:45.443Z,12.88
2022-10-26T22:41:14.532Z,12.91
2022-10-26T22:43:42.325Z,12.94
2022-10-26T22:46:13.992Z,13.02
2022-10-26T22:48:42.213Z,13.10
2022-10-26T22:51:12.392Z,13.06
2022-10-26T22:53:40.271Z,12.92
2022-10-26T22:56:10.239Z,12.91
2022-10-26T22:58:40.620Z,13.00
2022-10-26T23:01:10.346Z,13.06
2022-10-26T23:03:38.463Z,12.95
2022-10-26T23:06:08.542Z,12.95
2022-10-26T23:08:36.418Z,13.04
2022-10-26T23:11:06.824Z,13.10
2022-10-26T23:13:35.015Z,13.14
2022-10-26T23:16:07.743Z,13.20
2022-10-26T23:18:36.055Z,13.24
2022-10-26T23:21:05.016Z,13.20
2022-10-26T23:23:33.084Z,13.24
2022-10-26T23:26:01.859Z,13.24
2022-10-26T23:28:30.114Z,13.25
2022-10-26T23:30:58.241Z,13.28
2022-10-26T23:33:27.601Z,13.33
2022-10-26T23:35:55.393Z,13.35
2022-10-26T23:38:23.153Z,13.34
2022-10-26T23:40:52.181Z,13.35
2022-10-26T23:43:20.205Z,13.36
2022-10-26T23:45:48.200Z,13.35
2022-10-26T23:48:17.019Z,13.37
2022-10-26T23:50:47.497Z,13.35
2022-10-26T23:53:16.282Z,13.35
2022-10-26T23:55:44.429Z,13.34
2022-10-26T23:58:12.983Z,13.33
